sensor_id;sensor_type;location;lat;lon;timestamp;temperature;humidity
2749;DHT22;1382;52.142;11.618;2024-03-02T00:17:17;11.30;58.30
2749;DHT22;1382;52.142;11.618;2024-03-02T00:32:10;11.20;58.40
2749;DHT22;1382;52.142;11.618;2024-03-02T00:44:09;11.20;58.20
2749;DHT22;1382;52.142;11.618;2024-03-02T00:46:55;11.20;58.30
2749;DHT22;1382;52.142;11.618;2024-03-02T00:56:58;11.10;58.20
2749;DHT22;1382;52.142;11.618;2024-03-02T01:00:19;11.10;58.10
2749;DHT22;1382;52.142;11.618;2024-03-02T01:03:37;11.10;58.20
2749;DHT22;1382;52.142;11.618;2024-03-02T01:06:46;11.10;58.20
2749;DHT22;1382;52.142;11.618;2024-03-02T01:41:12;11.00;58.70
2749;DHT22;1382;52.142;11.618;2024-03-02T01:45:36;11.00;58.50
2749;DHT22;1382;52.142;11.618;2024-03-02T01:47:23;10.80;58.40
2749;DHT22;1382;52.142;11.618;2024-03-02T02:16:51;10.90;58.40
2749;DHT22;1382;52.142;11.618;2024-03-02T02:44:21;10.90;58.30
2749;DHT22;1382;52.142;11.618;2024-03-02T02:50:23;11.00;58.60
2749;DHT22;1382;52.142;11.618;2024-03-02T03:20:08;11.00;58.60
2749;DHT22;1382;52.142;11.618;2024-03-02T03:23:10;10.90;58.60
2749;DHT22;1382;52.142;11.618;2024-03-02T04:03:32;10.90;58.30
2749;DHT22;1382;52.142;11.618;2024-03-02T04:06:39;10.90;58.30
2749;DHT22;1382;52.142;11.618;2024-03-02T04:10:59;11.00;58.30
2749;DHT22;1382;52.142;11.618;2024-03-02T04:13:31;10.90;58.40
2749;DHT22;1382;52.142;11.618;2024-03-02T04:23:39;10.90;58.20
2749;DHT22;1382;52.142;11.618;2024-03-02T04:26:55;10.90;58.30
2749;DHT22;1382;52.142;11.618;2024-03-02T04:33:31;10.90;58.20
2749;DHT22;1382;52.142;11.618;2024-03-02T04:36:35;10.80;58.10
2749;DHT22;1382;52.142;11.618;2024-03-02T04:39:43;10.90;58.10
2749;DHT22;1382;52.142;11.618;2024-03-02T04:42:54;10.90;58.00
2749;DHT22;1382;52.142;11.618;2024-03-02T04:49:53;10.80;57.90
2749;DHT22;1382;52.142;11.618;2024-03-02T04:53:12;10.70;57.60
2749;DHT22;1382;52.142;11.618;2024-03-02T05:03:18;10.60;57.60
2749;DHT22;1382;52.142;11.618;2024-03-02T05:06:33;10.70;57.70
2749;DHT22;1382;52.142;11.618;2024-03-02T05:12:40;10.60;57.60
2749;DHT22;1382;52.142;11.618;2024-03-02T05:29:26;10.60;57.90
2749;DHT22;1382;52.142;11.618;2024-03-02T05:33:52;10.70;58.00
2749;DHT22;1382;52.142;11.618;2024-03-02T05:36:07;10.50;57.90
2749;DHT22;1382;52.142;11.618;2024-03-02T05:42:22;10.80;58.20
2749;DHT22;1382;52.142;11.618;2024-03-02T05:48:51;10.60;58.00
2749;DHT22;1382;52.142;11.618;2024-03-02T05:56:11;10.50;57.90
2749;DHT22;1382;52.142;11.618;2024-03-02T06:01:54;10.60;58.10
2749;DHT22;1382;52.142;11.618;2024-03-02T06:11:04;10.60;58.00
2749;DHT22;1382;52.142;11.618;2024-03-02T06:14:10;10.60;58.00
2749;DHT22;1382;52.142;11.618;2024-03-02T06:17:05;10.60;58.00
2749;DHT22;1382;52.142;11.618;2024-03-02T06:26:45;10.70;58.10
2749;DHT22;1382;52.142;11.618;2024-03-02T06:35:49;10.80;58.20
2749;DHT22;1382;52.142;11.618;2024-03-02T06:38:33;10.70;58.10
2749;DHT22;1382;52.142;11.618;2024-03-02T06:41:45;10.80;58.10
2749;DHT22;1382;52.142;11.618;2024-03-02T06:44:51;10.80;58.10
2749;DHT22;1382;52.142;11.618;2024-03-02T06:47:39;10.80;58.10
2749;DHT22;1382;52.142;11.618;2024-03-02T06:50:33;10.80;58.20
2749;DHT22;1382;52.142;11.618;2024-03-02T06:53:17;10.80;58.10
2749;DHT22;1382;52.142;11.618;2024-03-02T06:56:46;10.80;58.10
2749;DHT22;1382;52.142;11.618;2024-03-02T06:59:59;11.00;58.20
2749;DHT22;1382;52.142;11.618;2024-03-02T07:02:53;10.90;58.00
2749;DHT22;1382;52.142;11.618;2024-03-02T07:05:32;11.00;58.20
2749;DHT22;1382;52.142;11.618;2024-03-02T07:08:13;10.90;58.10
2749;DHT22;1382;52.142;11.618;2024-03-02T07:17:43;10.90;57.90
2749;DHT22;1382;52.142;11.618;2024-03-02T07:20:35;11.00;58.10
2749;DHT22;1382;52.142;11.618;2024-03-02T07:23:12;11.10;58.20
2749;DHT22;1382;52.142;11.618;2024-03-02T07:25:55;11.00;58.30
2749;DHT22;1382;52.142;11.618;2024-03-02T07:29:05;11.00;58.00
2749;DHT22;1382;52.142;11.618;2024-03-02T07:31:44;11.00;58.20
2749;DHT22;1382;52.142;11.618;2024-03-02T07:34:20;11.00;58.50
2749;DHT22;1382;52.142;11.618;2024-03-02T07:37:19;11.10;58.70
2749;DHT22;1382;52.142;11.618;2024-03-02T07:40:05;11.10;58.70
2749;DHT22;1382;52.142;11.618;2024-03-02T07:42:54;11.20;58.80
2749;DHT22;1382;52.142;11.618;2024-03-02T07:45:29;11.20;58.80
2749;DHT22;1382;52.142;11.618;2024-03-02T07:48:14;11.30;58.90
2749;DHT22;1382;52.142;11.618;2024-03-02T07:51:12;11.30;58.80
2749;DHT22;1382;52.142;11.618;2024-03-02T08:04:31;11.40;59.00
2749;DHT22;1382;52.142;11.618;2024-03-02T08:10:58;11.50;59.00
2749;DHT22;1382;52.142;11.618;2024-03-02T08:13:53;11.70;59.20
2749;DHT22;1382;52.142;11.618;2024-03-02T08:17:10;11.50;59.50
2749;DHT22;1382;52.142;11.618;2024-03-02T08:22:45;11.60;59.10
2749;DHT22;1382;52.142;11.618;2024-03-02T08:26:03;11.80;59.40
2749;DHT22;1382;52.142;11.618;2024-03-02T08:29:06;11.60;59.20
2749;DHT22;1382;52.142;11.618;2024-03-02T08:32:24;11.70;59.10
2749;DHT22;1382;52.142;11.618;2024-03-02T08:35:52;11.90;59.10
2749;DHT22;1382;52.142;11.618;2024-03-02T08:38:55;11.80;59.10
2749;DHT22;1382;52.142;11.618;2024-03-02T08:41:44;12.00;59.40
2749;DHT22;1382;52.142;11.618;2024-03-02T08:44:46;12.10;60.40
2749;DHT22;1382;52.142;11.618;2024-03-02T08:47:58;12.10;59.50
2749;DHT22;1382;52.142;11.618;2024-03-02T08:50:47;12.20;59.50
2749;DHT22;1382;52.142;11.618;2024-03-02T09:03:35;12.50;59.30
2749;DHT22;1382;52.142;11.618;2024-03-02T09:13:28;12.60;59.40
2749;DHT22;1382;52.142;11.618;2024-03-02T09:29:53;12.60;59.10
2749;DHT22;1382;52.142;11.618;2024-03-02T09:32:46;12.90;59.20
2749;DHT22;1382;52.142;11.618;2024-03-02T09:35:38;13.00;59.10
2749;DHT22;1382;52.142;11.618;2024-03-02T09:38:23;13.10;59.30
2749;DHT22;1382;52.142;11.618;2024-03-02T09:41:19;13.10;59.30
2749;DHT22;1382;52.142;11.618;2024-03-02T09:44:34;13.40;59.30
2749;DHT22;1382;52.142;11.618;2024-03-02T09:54:34;13.30;59.30
2749;DHT22;1382;52.142;11.618;2024-03-02T09:57:29;13.20;58.80
2749;DHT22;1382;52.142;11.618;2024-03-02T10:00:26;13.50;59.20
2749;DHT22;1382;52.142;11.618;2024-03-02T10:04:18;13.60;58.80
2749;DHT22;1382;52.142;11.618;2024-03-02T10:11:08;13.80;58.90
2749;DHT22;1382;52.142;11.618;2024-03-02T10:20:40;14.10;59.20
2749;DHT22;1382;52.142;11.618;2024-03-02T10:24:51;14.20;59.40
2749;DHT22;1382;52.142;11.618;2024-03-02T10:30:50;14.50;59.30
2749;DHT22;1382;52.142;11.618;2024-03-02T10:33:17;14.50;59.20
2749;DHT22;1382;52.142;11.618;2024-03-02T10:35:44;14.70;59.20
2749;DHT22;1382;52.142;11.618;2024-03-02T10:38:11;14.80;59.10
2749;DHT22;1382;52.142;11.618;2024-03-02T10:40:38;14.90;59.10
2749;DHT22;1382;52.142;11.618;2024-03-02T10:43:06;15.00;59.10
2749;DHT22;1382;52.142;11.618;2024-03-02T10:45:33;15.10;59.10
2749;DHT22;1382;52.142;11.618;2024-03-02T10:48:02;15.20;59.10
2749;DHT22;1382;52.142;11.618;2024-03-02T10:50:30;15.30;59.00
2749;DHT22;1382;52.142;11.618;2024-03-02T10:52:57;15.40;59.10
2749;DHT22;1382;52.142;11.618;2024-03-02T10:55:24;15.50;59.00
2749;DHT22;1382;52.142;11.618;2024-03-02T10:57:52;15.60;58.90
2749;DHT22;1382;52.142;11.618;2024-03-02T11:00:20;15.70;58.90
2749;DHT22;1382;52.142;11.618;2024-03-02T11:02:50;15.80;59.10
2749;DHT22;1382;52.142;11.618;2024-03-02T11:05:26;15.90;59.60
2749;DHT22;1382;52.142;11.618;2024-03-02T11:07:57;16.00;58.50
2749;DHT22;1382;52.142;11.618;2024-03-02T11:10:29;16.10;58.40
2749;DHT22;1382;52.142;11.618;2024-03-02T11:13:01;16.20;58.80
2749;DHT22;1382;52.142;11.618;2024-03-02T11:15:29;16.20;58.40
2749;DHT22;1382;52.142;11.618;2024-03-02T11:17:57;16.30;58.50
2749;DHT22;1382;52.142;11.618;2024-03-02T11:20:26;16.60;58.50
2749;DHT22;1382;52.142;11.618;2024-03-02T11:22:53;16.70;58.40
2749;DHT22;1382;52.142;11.618;2024-03-02T11:25:23;16.60;58.50
2749;DHT22;1382;52.142;11.618;2024-03-02T11:28:01;16.70;58.50
2749;DHT22;1382;52.142;11.618;2024-03-02T11:30:50;16.80;58.30
2749;DHT22;1382;52.142;11.618;2024-03-02T11:33:23;16.90;58.70
2749;DHT22;1382;52.142;11.618;2024-03-02T11:35:52;17.00;59.20
2749;DHT22;1382;52.142;11.618;2024-03-02T11:38:19;17.00;58.60
2749;DHT22;1382;52.142;11.618;2024-03-02T11:40:46;17.10;58.70
2749;DHT22;1382;52.142;11.618;2024-03-02T11:43:13;17.20;58.90
2749;DHT22;1382;52.142;11.618;2024-03-02T11:45:42;17.20;58.30
2749;DHT22;1382;52.142;11.618;2024-03-02T11:48:14;17.30;58.30
2749;DHT22;1382;52.142;11.618;2024-03-02T11:50:42;17.40;58.70
2749;DHT22;1382;52.142;11.618;2024-03-02T11:53:14;17.50;57.50
2749;DHT22;1382;52.142;11.618;2024-03-02T11:55:41;17.60;57.90
2749;DHT22;1382;52.142;11.618;2024-03-02T11:58:08;17.60;57.70
2749;DHT22;1382;52.142;11.618;2024-03-02T12:00:35;17.80;58.40
2749;DHT22;1382;52.142;11.618;2024-03-02T12:03:04;17.70;58.80
2749;DHT22;1382;52.142;11.618;2024-03-02T12:05:32;17.80;58.10
2749;DHT22;1382;52.142;11.618;2024-03-02T12:08:01;17.80;58.80
2749;DHT22;1382;52.142;11.618;2024-03-02T12:10:30;17.90;58.60
2749;DHT22;1382;52.142;11.618;2024-03-02T12:12:57;18.00;59.90
2749;DHT22;1382;52.142;11.618;2024-03-02T12:15:26;18.10;60.00
2749;DHT22;1382;52.142;11.618;2024-03-02T12:17:54;18.10;58.70
2749;DHT22;1382;52.142;11.618;2024-03-02T12:20:21;18.20;58.00
2749;DHT22;1382;52.142;11.618;2024-03-02T12:22:49;18.30;56.90
2749;DHT22;1382;52.142;11.618;2024-03-02T12:25:16;18.40;57.20
2749;DHT22;1382;52.142;11.618;2024-03-02T12:27:45;18.40;56.80
2749;DHT22;1382;52.142;11.618;2024-03-02T12:30:12;18.50;57.40
2749;DHT22;1382;52.142;11.618;2024-03-02T12:32:40;18.50;57.20
2749;DHT22;1382;52.142;11.618;2024-03-02T12:35:07;18.60;56.60
2749;DHT22;1382;52.142;11.618;2024-03-02T12:37:42;18.70;56.40
2749;DHT22;1382;52.142;11.618;2024-03-02T12:40:10;18.70;56.50
2749;DHT22;1382;52.142;11.618;2024-03-02T12:42:37;19.00;56.20
2749;DHT22;1382;52.142;11.618;2024-03-02T12:45:06;18.80;55.90
2749;DHT22;1382;52.142;11.618;2024-03-02T12:47:33;18.90;55.60
2749;DHT22;1382;52.142;11.618;2024-03-02T12:50:00;18.90;54.70
2749;DHT22;1382;52.142;11.618;2024-03-02T12:52:27;19.00;55.10
2749;DHT22;1382;52.142;11.618;2024-03-02T12:54:54;19.00;54.90
2749;DHT22;1382;52.142;11.618;2024-03-02T12:57:21;19.10;54.60
2749;DHT22;1382;52.142;11.618;2024-03-02T12:59:48;19.10;55.60
2749;DHT22;1382;52.142;11.618;2024-03-02T13:02:18;19.20;55.70
2749;DHT22;1382;52.142;11.618;2024-03-02T13:04:52;19.20;55.80
2749;DHT22;1382;52.142;11.618;2024-03-02T13:07:19;19.30;55.50
2749;DHT22;1382;52.142;11.618;2024-03-02T13:09:46;19.30;55.40
2749;DHT22;1382;52.142;11.618;2024-03-02T13:12:15;19.30;55.40
2749;DHT22;1382;52.142;11.618;2024-03-02T13:14:41;19.40;55.70
2749;DHT22;1382;52.142;11.618;2024-03-02T13:17:08;19.40;56.10
2749;DHT22;1382;52.142;11.618;2024-03-02T13:19:37;19.50;55.80
2749;DHT22;1382;52.142;11.618;2024-03-02T13:22:04;19.60;54.40
2749;DHT22;1382;52.142;11.618;2024-03-02T13:24:31;19.60;55.10
2749;DHT22;1382;52.142;11.618;2024-03-02T13:26:58;19.60;54.70
2749;DHT22;1382;52.142;11.618;2024-03-02T13:29:25;19.60;53.90
2749;DHT22;1382;52.142;11.618;2024-03-02T13:31:52;19.70;53.50
2749;DHT22;1382;52.142;11.618;2024-03-02T13:34:19;19.70;53.80
2749;DHT22;1382;52.142;11.618;2024-03-02T13:36:47;19.70;53.50
2749;DHT22;1382;52.142;11.618;2024-03-02T13:39:14;19.70;53.60
2749;DHT22;1382;52.142;11.618;2024-03-02T13:41:41;19.70;53.90
2749;DHT22;1382;52.142;11.618;2024-03-02T13:44:08;19.70;54.00
2749;DHT22;1382;52.142;11.618;2024-03-02T13:46:35;19.70;53.70
2749;DHT22;1382;52.142;11.618;2024-03-02T13:49:02;19.70;53.60
2749;DHT22;1382;52.142;11.618;2024-03-02T13:51:29;19.70;53.10
2749;DHT22;1382;52.142;11.618;2024-03-02T13:53:57;19.70;53.60
2749;DHT22;1382;52.142;11.618;2024-03-02T13:56:25;19.70;53.00
2749;DHT22;1382;52.142;11.618;2024-03-02T13:58:51;19.70;52.70
2749;DHT22;1382;52.142;11.618;2024-03-02T14:01:18;19.70;53.30
2749;DHT22;1382;52.142;11.618;2024-03-02T14:03:45;19.70;52.80
2749;DHT22;1382;52.142;11.618;2024-03-02T14:06:15;19.80;52.80
2749;DHT22;1382;52.142;11.618;2024-03-02T14:08:41;19.60;52.40
2749;DHT22;1382;52.142;11.618;2024-03-02T14:11:10;19.60;51.90
2749;DHT22;1382;52.142;11.618;2024-03-02T14:13:36;19.50;51.50
2749;DHT22;1382;52.142;11.618;2024-03-02T14:16:04;19.40;51.20
2749;DHT22;1382;52.142;11.618;2024-03-02T14:18:31;19.40;51.00
2749;DHT22;1382;52.142;11.618;2024-03-02T14:20:58;19.40;51.10
2749;DHT22;1382;52.142;11.618;2024-03-02T14:23:25;19.20;50.60
2749;DHT22;1382;52.142;11.618;2024-03-02T14:25:52;19.20;50.60
2749;DHT22;1382;52.142;11.618;2024-03-02T14:28:20;19.20;50.30
2749;DHT22;1382;52.142;11.618;2024-03-02T14:31:06;19.10;49.80
2749;DHT22;1382;52.142;11.618;2024-03-02T14:33:34;19.00;49.70
2749;DHT22;1382;52.142;11.618;2024-03-02T14:36:00;19.00;49.50
2749;DHT22;1382;52.142;11.618;2024-03-02T14:38:27;19.00;50.40
2749;DHT22;1382;52.142;11.618;2024-03-02T14:40:54;19.00;50.00
2749;DHT22;1382;52.142;11.618;2024-03-02T14:43:22;19.00;50.30
2749;DHT22;1382;52.142;11.618;2024-03-02T14:45:49;19.00;50.60
2749;DHT22;1382;52.142;11.618;2024-03-02T14:48:16;19.00;51.60
2749;DHT22;1382;52.142;11.618;2024-03-02T14:50:43;19.00;51.10
2749;DHT22;1382;52.142;11.618;2024-03-02T14:53:10;19.00;50.90
2749;DHT22;1382;52.142;11.618;2024-03-02T14:55:37;19.00;51.20
2749;DHT22;1382;52.142;11.618;2024-03-02T14:58:04;18.90;51.20
2749;DHT22;1382;52.142;11.618;2024-03-02T15:00:32;19.00;51.30
2749;DHT22;1382;52.142;11.618;2024-03-02T15:02:59;19.00;51.20
2749;DHT22;1382;52.142;11.618;2024-03-02T15:05:26;19.00;51.20
2749;DHT22;1382;52.142;11.618;2024-03-02T15:07:53;18.90;50.90
2749;DHT22;1382;52.142;11.618;2024-03-02T15:10:20;18.90;51.60
2749;DHT22;1382;52.142;11.618;2024-03-02T15:12:47;18.90;50.90
2749;DHT22;1382;52.142;11.618;2024-03-02T15:15:14;18.90;51.10
2749;DHT22;1382;52.142;11.618;2024-03-02T15:17:42;18.90;50.80
2749;DHT22;1382;52.142;11.618;2024-03-02T15:20:09;18.90;50.80
2749;DHT22;1382;52.142;11.618;2024-03-02T15:22:36;18.80;50.80
2749;DHT22;1382;52.142;11.618;2024-03-02T15:25:04;18.80;50.50
2749;DHT22;1382;52.142;11.618;2024-03-02T15:27:33;18.80;50.60
2749;DHT22;1382;52.142;11.618;2024-03-02T15:30:09;18.80;50.80
2749;DHT22;1382;52.142;11.618;2024-03-02T15:32:36;18.80;50.70
2749;DHT22;1382;52.142;11.618;2024-03-02T15:35:05;18.70;50.40
2749;DHT22;1382;52.142;11.618;2024-03-02T15:37:32;18.70;50.50
2749;DHT22;1382;52.142;11.618;2024-03-02T15:39:59;18.70;50.60
2749;DHT22;1382;52.142;11.618;2024-03-02T15:42:26;18.60;50.60
2749;DHT22;1382;52.142;11.618;2024-03-02T15:44:53;18.60;50.50
2749;DHT22;1382;52.142;11.618;2024-03-02T15:47:19;18.60;50.30
2749;DHT22;1382;52.142;11.618;2024-03-02T15:49:46;18.70;50.70
2749;DHT22;1382;52.142;11.618;2024-03-02T15:52:14;18.50;50.20
2749;DHT22;1382;52.142;11.618;2024-03-02T15:54:42;18.50;50.30
2749;DHT22;1382;52.142;11.618;2024-03-02T15:57:09;18.50;50.50
2749;DHT22;1382;52.142;11.618;2024-03-02T15:59:35;18.40;50.50
2749;DHT22;1382;52.142;11.618;2024-03-02T16:02:02;18.40;50.50
2749;DHT22;1382;52.142;11.618;2024-03-02T16:04:29;18.40;51.10
2749;DHT22;1382;52.142;11.618;2024-03-02T16:06:56;18.40;50.80
2749;DHT22;1382;52.142;11.618;2024-03-02T16:09:24;18.30;50.60
2749;DHT22;1382;52.142;11.618;2024-03-02T16:11:51;18.30;51.00
2749;DHT22;1382;52.142;11.618;2024-03-02T16:14:19;18.30;50.90
2749;DHT22;1382;52.142;11.618;2024-03-02T16:16:45;18.30;50.60
2749;DHT22;1382;52.142;11.618;2024-03-02T16:19:12;18.20;50.60
2749;DHT22;1382;52.142;11.618;2024-03-02T16:21:51;18.30;50.80
2749;DHT22;1382;52.142;11.618;2024-03-02T16:24:17;18.10;50.90
2749;DHT22;1382;52.142;11.618;2024-03-02T16:26:46;18.10;51.20
2749;DHT22;1382;52.142;11.618;2024-03-02T16:29:13;18.20;51.10
2749;DHT22;1382;52.142;11.618;2024-03-02T16:31:40;18.00;51.20
2749;DHT22;1382;52.142;11.618;2024-03-02T16:34:06;18.00;51.20
2749;DHT22;1382;52.142;11.618;2024-03-02T16:36:34;17.90;51.20
2749;DHT22;1382;52.142;11.618;2024-03-02T16:39:01;17.90;51.30
2749;DHT22;1382;52.142;11.618;2024-03-02T16:41:28;17.80;51.30
2749;DHT22;1382;52.142;11.618;2024-03-02T16:43:56;17.80;51.50
2749;DHT22;1382;52.142;11.618;2024-03-02T16:46:23;17.70;52.10
2749;DHT22;1382;52.142;11.618;2024-03-02T16:48:50;17.70;51.70
2749;DHT22;1382;52.142;11.618;2024-03-02T16:51:17;17.60;51.60
2749;DHT22;1382;52.142;11.618;2024-03-02T16:53:44;17.50;51.70
2749;DHT22;1382;52.142;11.618;2024-03-02T16:56:11;17.50;51.70
2749;DHT22;1382;52.142;11.618;2024-03-02T16:58:38;17.40;51.70
2749;DHT22;1382;52.142;11.618;2024-03-02T17:01:06;17.40;51.90
2749;DHT22;1382;52.142;11.618;2024-03-02T17:03:33;17.40;52.10
2749;DHT22;1382;52.142;11.618;2024-03-02T17:05:59;17.20;52.10
2749;DHT22;1382;52.142;11.618;2024-03-02T17:08:26;17.20;52.20
2749;DHT22;1382;52.142;11.618;2024-03-02T17:10:53;17.10;52.30
2749;DHT22;1382;52.142;11.618;2024-03-02T17:13:20;17.10;52.30
2749;DHT22;1382;52.142;11.618;2024-03-02T17:15:47;17.10;52.50
2749;DHT22;1382;52.142;11.618;2024-03-02T17:18:15;16.90;52.40
2749;DHT22;1382;52.142;11.618;2024-03-02T17:20:42;16.90;52.50
2749;DHT22;1382;52.142;11.618;2024-03-02T17:23:09;16.80;52.60
2749;DHT22;1382;52.142;11.618;2024-03-02T17:25:36;16.80;52.60
2749;DHT22;1382;52.142;11.618;2024-03-02T17:28:21;16.70;52.70
2749;DHT22;1382;52.142;11.618;2024-03-02T17:30:48;16.70;52.60
2749;DHT22;1382;52.142;11.618;2024-03-02T17:33:16;16.60;52.90
2749;DHT22;1382;52.142;11.618;2024-03-02T17:35:44;16.50;52.90
2749;DHT22;1382;52.142;11.618;2024-03-02T17:38:11;16.50;53.00
2749;DHT22;1382;52.142;11.618;2024-03-02T17:40:38;16.40;53.10
2749;DHT22;1382;52.142;11.618;2024-03-02T17:43:04;16.40;53.30
2749;DHT22;1382;52.142;11.618;2024-03-02T17:45:31;16.40;53.40
2749;DHT22;1382;52.142;11.618;2024-03-02T17:47:58;16.20;53.30
2749;DHT22;1382;52.142;11.618;2024-03-02T17:50:26;16.20;53.50
2749;DHT22;1382;52.142;11.618;2024-03-02T17:52:54;16.20;53.60
2749;DHT22;1382;52.142;11.618;2024-03-02T17:55:21;16.10;53.70
2749;DHT22;1382;52.142;11.618;2024-03-02T17:57:48;16.10;53.80
2749;DHT22;1382;52.142;11.618;2024-03-02T18:00:15;16.00;53.80
2749;DHT22;1382;52.142;11.618;2024-03-02T18:02:43;16.00;54.00
2749;DHT22;1382;52.142;11.618;2024-03-02T18:05:10;15.90;54.20
2749;DHT22;1382;52.142;11.618;2024-03-02T18:07:38;16.00;54.30
2749;DHT22;1382;52.142;11.618;2024-03-02T18:10:06;15.80;54.30
2749;DHT22;1382;52.142;11.618;2024-03-02T18:12:33;15.80;54.40
2749;DHT22;1382;52.142;11.618;2024-03-02T18:15:00;15.70;54.40
2749;DHT22;1382;52.142;11.618;2024-03-02T18:17:26;15.70;54.50
2749;DHT22;1382;52.142;11.618;2024-03-02T18:19:53;15.70;54.60
2749;DHT22;1382;52.142;11.618;2024-03-02T18:22:20;15.60;54.60
2749;DHT22;1382;52.142;11.618;2024-03-02T18:24:48;15.60;54.70
2749;DHT22;1382;52.142;11.618;2024-03-02T18:27:15;15.60;54.80
2749;DHT22;1382;52.142;11.618;2024-03-02T18:29:42;15.50;54.80
2749;DHT22;1382;52.142;11.618;2024-03-02T18:32:09;15.50;54.90
2749;DHT22;1382;52.142;11.618;2024-03-02T18:34:35;15.50;54.90
2749;DHT22;1382;52.142;11.618;2024-03-02T18:37:06;15.50;55.00
2749;DHT22;1382;52.142;11.618;2024-03-02T18:39:33;15.40;55.00
2749;DHT22;1382;52.142;11.618;2024-03-02T18:42:02;15.40;55.10
2749;DHT22;1382;52.142;11.618;2024-03-02T18:44:28;15.40;55.10
2749;DHT22;1382;52.142;11.618;2024-03-02T18:46:55;15.30;55.10
2749;DHT22;1382;52.142;11.618;2024-03-02T18:49:22;15.30;55.10
2749;DHT22;1382;52.142;11.618;2024-03-02T18:51:49;15.20;55.10
2749;DHT22;1382;52.142;11.618;2024-03-02T18:54:16;15.20;55.20
2749;DHT22;1382;52.142;11.618;2024-03-02T18:56:43;15.20;55.20
2749;DHT22;1382;52.142;11.618;2024-03-02T18:59:11;15.30;55.30
2749;DHT22;1382;52.142;11.618;2024-03-02T19:01:38;15.10;55.30
2749;DHT22;1382;52.142;11.618;2024-03-02T19:04:05;15.10;55.30
2749;DHT22;1382;52.142;11.618;2024-03-02T19:06:31;15.10;55.40
2749;DHT22;1382;52.142;11.618;2024-03-02T19:08:58;15.00;55.40
2749;DHT22;1382;52.142;11.618;2024-03-02T19:11:25;15.00;55.40
2749;DHT22;1382;52.142;11.618;2024-03-02T19:13:52;15.00;55.40
2749;DHT22;1382;52.142;11.618;2024-03-02T19:16:20;14.90;55.40
2749;DHT22;1382;52.142;11.618;2024-03-02T19:18:47;14.90;55.50
2749;DHT22;1382;52.142;11.618;2024-03-02T19:21:14;14.90;55.50
2749;DHT22;1382;52.142;11.618;2024-03-02T19:23:40;14.80;55.50
2749;DHT22;1382;52.142;11.618;2024-03-02T19:26:11;14.80;55.50
2749;DHT22;1382;52.142;11.618;2024-03-02T19:28:38;14.80;55.50
2749;DHT22;1382;52.142;11.618;2024-03-02T19:31:04;14.70;55.50
2749;DHT22;1382;52.142;11.618;2024-03-02T19:33:33;14.70;55.60
2749;DHT22;1382;52.142;11.618;2024-03-02T19:36:00;14.70;55.60
2749;DHT22;1382;52.142;11.618;2024-03-02T19:38:27;14.70;55.70
2749;DHT22;1382;52.142;11.618;2024-03-02T19:40:53;14.60;55.60
2749;DHT22;1382;52.142;11.618;2024-03-02T19:43:20;14.60;55.70
2749;DHT22;1382;52.142;11.618;2024-03-02T19:45:47;14.60;55.60
2749;DHT22;1382;52.142;11.618;2024-03-02T19:48:14;14.70;55.80
2749;DHT22;1382;52.142;11.618;2024-03-02T19:50:42;14.50;55.70
2749;DHT22;1382;52.142;11.618;2024-03-02T19:53:12;14.50;55.70
2749;DHT22;1382;52.142;11.618;2024-03-02T19:55:39;14.50;55.70
2749;DHT22;1382;52.142;11.618;2024-03-02T19:58:06;14.50;55.70
2749;DHT22;1382;52.142;11.618;2024-03-02T20:00:33;14.50;55.70
2749;DHT22;1382;52.142;11.618;2024-03-02T20:03:00;14.40;55.60
2749;DHT22;1382;52.142;11.618;2024-03-02T20:05:27;14.60;55.80
2749;DHT22;1382;52.142;11.618;2024-03-02T20:07:55;14.40;55.60
2749;DHT22;1382;52.142;11.618;2024-03-02T20:10:22;14.40;55.60
2749;DHT22;1382;52.142;11.618;2024-03-02T20:12:49;14.30;55.60
2749;DHT22;1382;52.142;11.618;2024-03-02T20:15:16;14.40;55.60
2749;DHT22;1382;52.142;11.618;2024-03-02T20:17:43;14.30;55.70
2749;DHT22;1382;52.142;11.618;2024-03-02T20:20:12;14.30;55.60
2749;DHT22;1382;52.142;11.618;2024-03-02T20:22:39;14.40;55.80
2749;DHT22;1382;52.142;11.618;2024-03-02T20:25:08;14.20;55.70
2749;DHT22;1382;52.142;11.618;2024-03-02T20:27:35;14.20;55.60
2749;DHT22;1382;52.142;11.618;2024-03-02T20:30:03;14.30;55.80
2749;DHT22;1382;52.142;11.618;2024-03-02T20:32:30;14.20;55.70
2749;DHT22;1382;52.142;11.618;2024-03-02T20:34:57;14.10;55.70
2749;DHT22;1382;52.142;11.618;2024-03-02T20:37:23;13.90;55.60
2749;DHT22;1382;52.142;11.618;2024-03-02T20:39:51;14.00;55.80
2749;DHT22;1382;52.142;11.618;2024-03-02T20:42:19;14.00;56.00
2749;DHT22;1382;52.142;11.618;2024-03-02T20:44:46;13.90;56.00
2749;DHT22;1382;52.142;11.618;2024-03-02T20:47:13;13.90;56.10
2749;DHT22;1382;52.142;11.618;2024-03-02T20:49:40;13.80;56.20
2749;DHT22;1382;52.142;11.618;2024-03-02T20:52:07;13.80;56.40
2749;DHT22;1382;52.142;11.618;2024-03-02T20:54:34;13.80;56.40
2749;DHT22;1382;52.142;11.618;2024-03-02T20:57:00;13.90;56.50
2749;DHT22;1382;52.142;11.618;2024-03-02T20:59:29;13.80;56.60
2749;DHT22;1382;52.142;11.618;2024-03-02T21:01:56;13.90;56.70
2749;DHT22;1382;52.142;11.618;2024-03-02T21:04:25;13.70;56.60
2749;DHT22;1382;52.142;11.618;2024-03-02T21:06:52;13.70;57.30
2749;DHT22;1382;52.142;11.618;2024-03-02T21:09:18;13.70;56.70
2749;DHT22;1382;52.142;11.618;2024-03-02T21:11:45;13.60;56.70
2749;DHT22;1382;52.142;11.618;2024-03-02T21:14:12;13.80;56.90
2749;DHT22;1382;52.142;11.618;2024-03-02T21:16:40;13.60;56.70
2749;DHT22;1382;52.142;11.618;2024-03-02T21:19:07;13.60;56.60
2749;DHT22;1382;52.142;11.618;2024-03-02T21:21:34;13.60;56.70
2749;DHT22;1382;52.142;11.618;2024-03-02T21:24:01;13.50;56.60
2749;DHT22;1382;52.142;11.618;2024-03-02T21:26:28;13.50;56.70
2749;DHT22;1382;52.142;11.618;2024-03-02T21:28:55;13.50;56.70
2749;DHT22;1382;52.142;11.618;2024-03-02T21:31:22;13.50;56.70
2749;DHT22;1382;52.142;11.618;2024-03-02T21:33:50;13.40;56.60
2749;DHT22;1382;52.142;11.618;2024-03-02T21:36:17;13.40;56.50
2749;DHT22;1382;52.142;11.618;2024-03-02T21:38:44;13.40;56.60
2749;DHT22;1382;52.142;11.618;2024-03-02T21:41:10;13.40;56.60
2749;DHT22;1382;52.142;11.618;2024-03-02T21:43:38;13.30;56.60
2749;DHT22;1382;52.142;11.618;2024-03-02T21:46:05;13.40;56.60
2749;DHT22;1382;52.142;11.618;2024-03-02T21:48:32;13.30;56.60
2749;DHT22;1382;52.142;11.618;2024-03-02T21:51:00;13.40;56.60
2749;DHT22;1382;52.142;11.618;2024-03-02T21:53:27;13.20;56.50
2749;DHT22;1382;52.142;11.618;2024-03-02T21:55:54;13.20;56.60
2749;DHT22;1382;52.142;11.618;2024-03-02T21:58:21;13.20;56.60
2749;DHT22;1382;52.142;11.618;2024-03-02T22:00:47;13.20;56.60
2749;DHT22;1382;52.142;11.618;2024-03-02T22:03:14;13.10;56.60
2749;DHT22;1382;52.142;11.618;2024-03-02T22:05:41;13.10;56.60
2749;DHT22;1382;52.142;11.618;2024-03-02T22:08:09;13.10;56.70
2749;DHT22;1382;52.142;11.618;2024-03-02T22:10:36;13.10;56.60
2749;DHT22;1382;52.142;11.618;2024-03-02T22:13:04;13.00;56.60
2749;DHT22;1382;52.142;11.618;2024-03-02T22:15:31;13.00;56.70
2749;DHT22;1382;52.142;11.618;2024-03-02T22:17:58;13.00;56.90
2749;DHT22;1382;52.142;11.618;2024-03-02T22:20:24;12.90;57.40